Time;durP1;ratioP1;P1;durP2;ratioP2;P2;SDS_P1;SDS_P2;PMS_P1;PMS_P2;Temp;Humidity;BMP_temperature;BMP_pressure;BME280_temperature;BME280_humidity;BME280_pressure;Samples;Min_cycle;Max_cycle;Signal;HPM_P1;HPM_P2
2022/08/03 00:00:14;;;;;;;5.53;5.17;;;;;;;21.43;87.74;100176.95;444774;119;922529;-79
2022/08/03 00:01:17;;;;;;;5.48;5.02;;;;;;;21.41;87.24;100181.95;444599;119;922543;-79
2022/08/03 00:02:20;;;;;;;5.65;5.28;;;;;;;21.39;87.15;100186.16;444694;119;922574;-78
2022/08/03 00:03:23;;;;;;;7.63;5.50;;;;;;;21.37;87.09;100185.62;444756;119;923054;-78
2022/08/03 00:04:26;;;;;;;5.39;5.06;;;;;;;21.37;87.21;100182.84;444774;119;923104;-79
2022/08/03 00:05:34;;;;;;;8.48;5.64;;;;;;;21.36;87.34;100175.64;443913;119;923099;-79
2022/08/03 00:06:39;;;;;;;5.84;5.44;;;;;;;21.37;87.63;100182.84;444501;119;922545;-79
2022/08/03 00:07:42;;;;;;;6.86;5.44;;;;;;;21.38;87.92;100184.50;444808;119;922677;-79
2022/08/03 00:08:46;;;;;;;6.00;5.44;;;;;;;21.40;88.19;100183.06;444718;119;922601;-79
2022/08/03 00:09:49;;;;;;;5.92;5.19;;;;;;;21.42;88.37;100180.00;444800;119;923015;-79
2022/08/03 00:10:52;;;;;;;6.52;5.73;;;;;;;21.43;88.49;100187.21;444832;119;923734;-79
2022/08/03 00:11:55;;;;;;;5.69;5.13;;;;;;;21.45;88.60;100190.49;444839;119;922510;-78
2022/08/03 00:12:58;;;;;;;8.30;5.06;;;;;;;21.46;88.43;100187.44;445202;118;922837;-79
2022/08/03 00:14:04;;;;;;;5.33;4.91;;;;;;;21.46;88.09;100186.60;449278;118;922524;-78
2022/08/03 00:15:08;;;;;;;5.48;5.11;;;;;;;21.45;87.82;100185.77;444473;118;922589;-78
2022/08/03 00:16:28;;;;;;;5.61;5.10;;;;;;;21.44;87.59;100183.32;434500;121;922571;-77
2022/08/03 00:17:31;;;;;;;5.99;5.55;;;;;;;21.42;87.32;100186.38;435229;122;923075;-78
2022/08/03 00:18:37;;;;;;;6.01;5.11;;;;;;;21.39;87.16;100188.94;439151;120;922614;-79
2022/08/03 00:19:40;;;;;;;5.92;5.43;;;;;;;21.37;87.15;100188.39;441555;120;923563;-78
2022/08/03 00:20:43;;;;;;;5.64;5.24;;;;;;;21.36;87.12;100187.56;441685;120;923083;-79
2022/08/03 00:21:46;;;;;;;5.61;4.76;;;;;;;21.36;87.28;100197.83;435432;122;923108;-78
2022/08/03 00:22:49;;;;;;;5.59;5.14;;;;;;;21.36;87.41;100192.28;435387;122;922540;-79
2022/08/03 00:23:52;;;;;;;5.66;5.26;;;;;;;21.37;87.54;100188.39;435398;122;922537;-79
2022/08/03 00:24:55;;;;;;;5.47;4.94;;;;;;;21.37;87.68;100193.94;446883;116;923101;-79
2022/08/03 00:26:30;;;;;;;5.49;5.09;;;;;;;21.38;87.72;100190.05;448145;118;922552;-79
2022/08/03 00:27:33;;;;;;;5.38;4.82;;;;;;;21.38;87.68;100198.37;442481;118;923686;-79
2022/08/03 00:28:38;;;;;;;5.15;4.89;;;;;;;21.38;87.71;100201.14;447948;118;922546;-78
2022/08/03 00:29:41;;;;;;;5.31;4.96;;;;;;;21.38;87.80;100201.97;447750;118;930684;-78
2022/08/03 00:30:46;;;;;;;5.51;5.04;;;;;;;21.40;87.92;100204.42;446762;116;922697;-78
2022/08/03 00:31:49;;;;;;;5.13;4.79;;;;;;;21.40;88.06;100202.48;449343;116;923139;-78
2022/08/03 00:32:54;;;;;;;5.24;4.74;;;;;;;21.41;88.19;100204.14;448264;118;930527;-79
2022/08/03 00:33:57;;;;;;;4.78;4.44;;;;;;;21.42;88.12;100204.97;449342;118;922520;-79
2022/08/03 00:35:02;;;;;;;5.14;4.84;;;;;;;21.43;88.24;100206.63;444200;118;922733;-79
2022/08/03 00:36:08;;;;;;;5.57;5.18;;;;;;;21.44;88.30;100209.11;449237;118;922579;-79
2022/08/03 00:37:11;;;;;;;5.24;4.72;;;;;;;21.45;88.35;100207.97;449395;118;922905;-78
2022/08/03 00:38:14;;;;;;;5.04;4.45;;;;;;;21.46;88.32;100219.89;449332;118;922581;-78
2022/08/03 00:39:17;;;;;;;5.50;5.18;;;;;;;21.47;88.21;100211.28;449370;117;923053;-78
2022/08/03 00:40:22;;;;;;;5.74;5.32;;;;;;;21.46;88.05;100215.17;449009;118;922657;-79
2022/08/03 00:41:25;;;;;;;5.51;5.05;;;;;;;21.47;88.11;100210.45;449362;118;923184;-79
2022/08/03 00:42:28;;;;;;;5.26;4.86;;;;;;;21.47;88.18;100214.05;449390;117;922566;-79
2022/08/03 00:43:31;;;;;;;5.26;4.75;;;;;;;21.48;88.29;100215.72;449354;118;922530;-79
2022/08/03 00:44:44;;;;;;;5.72;5.24;;;;;;;21.49;88.36;100214.59;449323;118;922975;-79
2022/08/03 00:45:47;;;;;;;5.31;4.91;;;;;;;21.50;88.54;100229.30;449146;118;922612;-78
2022/08/03 00:46:52;;;;;;;5.82;4.84;;;;;;;21.52;88.67;100221.48;449208;118;923122;-78
2022/08/03 00:47:56;;;;;;;5.61;5.08;;;;;;;21.52;88.67;100222.31;449415;118;922560;-78
2022/08/03 00:48:59;;;;;;;5.29;4.81;;;;;;;21.52;88.56;100216.77;449310;118;922954;-79
2022/08/03 00:50:02;;;;;;;5.04;4.56;;;;;;;21.52;88.47;100213.99;449274;117;930539;-79
2022/08/03 00:51:06;;;;;;;5.71;5.28;;;;;;;21.52;88.35;100211.22;449305;117;922514;-77
2022/08/03 00:52:10;;;;;;;4.92;4.62;;;;;;;21.53;88.30;100214.82;448719;117;930486;-78
2022/08/03 00:53:14;;;;;;;5.45;5.01;;;;;;;21.54;88.42;100216.48;439267;120;922490;-79
2022/08/03 00:54:17;;;;;;;7.04;5.26;;;;;;;21.53;88.45;100209.27;440513;120;922627;-78
2022/08/03 00:55:21;;;;;;;5.62;5.24;;;;;;;21.54;88.46;100216.48;431793;122;923099;-79
2022/08/03 00:56:25;;;;;;;5.93;5.41;;;;;;;21.54;88.27;100210.93;440445;120;922599;-79
2022/08/03 00:57:30;;;;;;;5.46;5.07;;;;;;;21.53;87.96;100215.66;431777;123;931034;-79
2022/08/03 00:58:34;;;;;;;4.82;4.42;;;;;;;21.52;87.73;100224.26;440267;120;923072;-79
2022/08/03 00:59:38;;;;;;;6.05;5.23;;;;;;;21.50;87.44;100223.75;431876;123;923143;-79
2022/08/03 01:00:42;;;;;;;5.42;5.02;;;;;;;21.49;87.26;100220.14;440423;120;922904;-78
2022/08/03 01:01:45;;;;;;;4.93;4.53;;;;;;;21.47;86.97;100227.09;431803;122;922854;-79
2022/08/03 01:02:48;;;;;;;5.39;4.97;;;;;;;21.45;86.92;100226.55;440506;120;922567;-79
2022/08/03 01:03:51;;;;;;;5.30;4.96;;;;;;;21.42;86.71;100221.61;431894;122;922580;-79
2022/08/03 01:04:55;;;;;;;5.68;5.14;;;;;;;21.40;86.58;100223.84;440506;120;923325;-79
2022/08/03 01:06:17;;;;;;;5.66;5.19;;;;;;;21.36;86.55;100223.62;431793;121;922579;-79
2022/08/03 01:07:26;;;;;;;5.85;5.42;;;;;;;21.34;86.45;100223.08;424832;124;930682;-78
2022/08/03 01:08:48;;;;;;;5.53;5.15;;;;;;;21.32;86.60;100219.79;447366;116;923426;-78
2022/08/03 01:10:09;;;;;;;5.46;4.83;;;;;;;21.30;86.60;100219.25;439098;120;922595;-78
2022/08/03 01:11:18;;;;;;;6.70;5.35;;;;;;;21.28;86.64;100212.36;437036;118;922965;-79
2022/08/03 01:12:40;;;;;;;5.66;5.19;;;;;;;21.25;86.67;100216.53;442045;119;922617;-79
2022/08/03 01:13:49;;;;;;;5.54;5.14;;;;;;;21.23;86.76;100216.81;442139;119;922715;-78
2022/08/03 01:15:18;;;;;;;5.47;5.01;;;;;;;21.32;86.50;100207.87;474350;110;947070;-79
2022/08/03 01:16:25;;;;;;;5.24;4.92;;;;;;;21.19;86.47;100215.76;457115;116;922613;-79
2022/08/03 01:17:34;;;;;;;5.40;5.00;;;;;;;21.16;86.34;100219.13;456689;116;922657;-80
2022/08/03 01:18:43;;;;;;;5.28;4.85;;;;;;;21.13;86.25;100216.91;457142;116;923120;-79
2022/08/03 01:20:05;;;;;;;5.61;5.13;;;;;;;21.11;86.17;100213.61;457123;116;922538;-79
2022/08/03 01:21:14;;;;;;;6.18;4.50;;;;;;;21.10;86.33;100217.50;453488;116;923589;-80
2022/08/03 01:22:30;;;;;;;5.52;5.19;;;;;;;21.12;86.77;100219.95;457812;114;923254;-78
2022/08/03 01:23:49;;;;;;;5.07;4.69;;;;;;;21.13;87.23;100214.13;465342;114;923037;-78
2022/08/03 01:25:04;;;;;;;6.95;5.62;;;;;;;21.15;87.43;100216.65;464854;113;923121;-79
2022/08/03 01:26:24;;;;;;;5.62;5.22;;;;;;;21.18;87.80;100216.87;465349;114;923113;-79
2022/08/03 01:27:51;;;;;;;5.73;5.31;;;;;;;21.20;87.89;100219.36;465321;114;922769;-79
2022/08/03 01:29:04;;;;;;;7.26;5.43;;;;;;;21.21;87.95;100216.30;465286;114;923042;-79
2022/08/03 01:30:09;;;;;;;5.59;5.08;;;;;;;21.22;88.04;100217.13;461594;114;922679;-79
2022/08/03 01:31:15;;;;;;;5.41;5.06;;;;;;;21.21;88.12;100216.30;464908;114;922540;-79
2022/08/03 01:32:21;;;;;;;5.36;4.94;;;;;;;21.23;88.19;100215.19;465359;114;922563;-79
2022/08/03 01:33:29;;;;;;;6.27;5.73;;;;;;;21.24;88.18;100214.88;462214;114;923386;-79
2022/08/03 01:34:36;;;;;;;5.84;5.34;;;;;;;21.25;88.29;100215.70;456735;116;922705;-80
2022/08/03 01:35:45;;;;;;;5.52;5.05;;;;;;;21.26;88.28;100209.05;456753;116;922853;-79
2022/08/03 01:36:51;;;;;;;5.71;4.68;;;;;;;21.26;88.17;100209.87;457300;116;922580;-78
2022/08/03 01:38:04;;;;;;;5.11;4.74;;;;;;;21.28;88.25;100204.84;457271;116;922618;-78
2022/08/03 01:39:08;;;;;;;6.49;5.97;;;;;;;21.30;88.31;100210.09;457214;116;922573;-79
2022/08/03 01:40:13;;;;;;;5.51;4.84;;;;;;;21.30;88.32;100199.83;457246;115;922522;-78
2022/08/03 01:41:19;;;;;;;5.36;4.89;;;;;;;21.31;88.16;100208.98;457230;116;930423;-79
2022/08/03 01:42:24;;;;;;;6.33;4.69;;;;;;;21.30;87.85;100205.38;457171;116;930475;-79
2022/08/03 01:43:29;;;;;;;5.63;5.15;;;;;;;21.30;87.82;100207.32;457318;116;922675;-77
2022/08/03 01:44:40;;;;;;;5.03;4.63;;;;;;;21.30;87.78;100210.92;454123;116;930496;-79
2022/08/03 01:45:44;;;;;;;5.62;5.18;;;;;;;21.30;87.72;100210.92;457292;116;922609;-79
2022/08/03 01:46:50;;;;;;;5.50;5.12;;;;;;;21.30;87.81;100210.09;457420;116;923311;-79
2022/08/03 01:47:54;;;;;;;5.34;4.79;;;;;;;21.31;87.89;100214.53;457305;116;922724;-79
2022/08/03 01:48:58;;;;;;;5.18;4.79;;;;;;;21.32;87.89;100218.96;457348;116;922626;-78
2022/08/03 01:50:04;;;;;;;5.16;4.80;;;;;;;21.33;88.03;100220.62;457344;116;922572;-78
2022/08/03 01:51:08;;;;;;;5.45;4.98;;;;;;;21.35;87.88;100215.58;457245;116;930556;-78
2022/08/03 01:52:14;;;;;;;4.69;4.42;;;;;;;21.36;87.89;100214.47;459242;115;922542;-79
2022/08/03 01:53:19;;;;;;;6.13;5.32;;;;;;;21.36;87.92;100215.30;461564;115;922589;-79
2022/08/03 01:54:24;;;;;;;5.35;4.95;;;;;;;21.38;87.80;100217.78;461489;115;923051;-79
2022/08/03 01:55:31;;;;;;;6.08;5.56;;;;;;;21.39;87.58;100216.67;461453;115;930513;-79
2022/08/03 01:56:36;;;;;;;5.08;4.68;;;;;;;21.40;87.68;100221.07;464785;114;922586;-78
2022/08/03 01:57:42;;;;;;;5.39;4.73;;;;;;;21.40;87.50;100215.52;464465;114;923016;-78
2022/08/03 01:58:50;;;;;;;5.34;4.95;;;;;;;21.41;87.53;100217.18;458148;115;922602;-79
2022/08/03 01:59:56;;;;;;;5.45;5.11;;;;;;;21.41;87.54;100220.78;461508;115;923164;-79
2022/08/03 02:01:01;;;;;;;6.88;4.53;;;;;;;21.41;87.36;100212.46;461539;115;923007;-79
2022/08/03 02:02:06;;;;;;;5.26;4.85;;;;;;;21.40;87.09;100215.52;461501;115;922556;-79
2022/08/03 02:03:14;;;;;;;5.83;5.06;;;;;;;21.40;86.95;100215.52;458236;115;922604;-80
2022/08/03 02:04:18;;;;;;;5.43;5.04;;;;;;;21.39;87.01;100220.23;461577;115;923139;-79
2022/08/03 02:05:23;;;;;;;7.30;4.72;;;;;;;21.38;86.92;100206.69;461674;115;922643;-78
2022/08/03 02:06:30;;;;;;;6.10;4.89;;;;;;;21.38;86.88;100209.46;461602;115;922563;-79
2022/08/03 02:07:38;;;;;;;5.78;5.16;;;;;;;21.36;86.51;100206.15;458239;115;922605;-79
2022/08/03 02:08:43;;;;;;;5.97;4.98;;;;;;;21.34;86.25;100206.44;461545;115;922549;-79
2022/08/03 02:09:50;;;;;;;5.66;4.90;;;;;;;21.31;86.04;100198.72;461519;115;923133;-78
2022/08/03 02:10:55;;;;;;;5.88;4.89;;;;;;;21.31;85.97;100206.20;461557;115;922547;-79
2022/08/03 02:11:59;;;;;;;5.59;5.11;;;;;;;21.29;85.98;100205.66;461554;115;923035;-79
2022/08/03 02:13:05;;;;;;;5.31;4.88;;;;;;;21.27;86.14;100205.16;461691;115;923165;-79
2022/08/03 02:14:09;;;;;;;5.38;4.88;;;;;;;21.28;86.35;100204.84;461561;115;922795;-79
2022/08/03 02:15:15;;;;;;;5.17;4.75;;;;;;;21.29;86.59;100208.44;457966;114;922717;-78
2022/08/03 02:16:21;;;;;;;5.21;4.79;;;;;;;21.30;86.81;100204.55;445613;119;923106;-79
2022/08/03 02:17:26;;;;;;;5.34;4.86;;;;;;;21.30;86.90;100208.16;451263;117;922935;-78
2022/08/03 02:18:32;;;;;;;5.23;4.56;;;;;;;21.31;86.89;100212.58;449658;118;922874;-79
2022/08/03 02:19:36;;;;;;;5.21;4.81;;;;;;;21.32;86.95;100205.09;446577;118;922965;-78
2022/08/03 02:20:42;;;;;;;4.90;4.54;;;;;;;21.32;86.95;100217.02;453459;116;923203;-79
2022/08/03 02:21:46;;;;;;;5.08;4.67;;;;;;;21.32;86.80;100210.64;453346;117;922506;-79
2022/08/03 02:22:51;;;;;;;5.69;5.16;;;;;;;21.31;86.62;100212.58;453278;117;922568;-80
2022/08/03 02:23:54;;;;;;;5.62;5.19;;;;;;;21.32;86.57;100207.87;453545;117;922994;-79
2022/08/03 02:24:57;;;;;;;4.77;4.46;;;;;;;21.30;86.37;100202.61;453486;117;922646;-76
2022/08/03 02:26:03;;;;;;;5.44;4.52;;;;;;;21.29;86.08;100197.34;453514;117;922639;-76
2022/08/03 02:27:13;;;;;;;5.37;4.94;;;;;;;21.27;85.80;100196.84;453258;117;922553;-77
2022/08/03 02:28:19;;;;;;;5.17;4.77;;;;;;;21.25;85.61;100199.06;452445;117;922720;-77
2022/08/03 02:29:25;;;;;;;4.96;4.54;;;;;;;21.23;85.62;100193.00;453288;117;922543;-79
2022/08/03 02:30:40;;;;;;;5.37;4.89;;;;;;;21.20;85.79;100192.47;449702;117;922918;-79
2022/08/03 02:31:42;;;;;;;5.39;4.74;;;;;;;21.20;85.89;100186.92;452977;117;922893;-78
2022/08/03 02:32:52;;;;;;;4.72;4.42;;;;;;;21.22;85.77;100189.41;453316;117;922616;-78
2022/08/03 02:34:04;;;;;;;5.37;4.96;;;;;;;21.20;85.67;100188.86;450650;117;930886;-79
2022/08/03 02:35:11;;;;;;;6.96;5.26;;;;;;;21.19;85.50;100189.98;446092;119;923132;-79
2022/08/03 02:36:17;;;;;;;4.84;4.56;;;;;;;21.17;85.39;100186.69;446140;119;922544;-79
2022/08/03 02:37:24;;;;;;;8.36;5.11;;;;;;;21.16;85.45;100185.86;446103;119;922653;-78
2022/08/03 02:38:30;;;;;;;5.78;5.05;;;;;;;21.15;85.57;100186.98;446152;119;922673;-79
2022/08/03 02:39:35;;;;;;;5.32;5.02;;;;;;;21.15;85.71;100195.30;446073;119;922977;-79
2022/08/03 02:40:41;;;;;;;5.70;5.26;;;;;;;21.15;85.90;100191.70;446137;119;922598;-78
2022/08/03 02:41:50;;;;;;;5.26;4.91;;;;;;;21.15;86.19;100186.98;446101;119;923229;-78
2022/08/03 02:42:57;;;;;;;4.93;4.53;;;;;;;21.17;86.64;100184.72;446071;119;922582;-78
2022/08/03 02:44:02;;;;;;;5.53;5.14;;;;;;;21.18;86.91;100186.37;446097;119;922538;-78
2022/08/03 02:45:14;;;;;;;7.22;5.87;;;;;;;21.20;87.12;100178.60;445939;118;923560;-79
2022/08/03 02:46:21;;;;;;;5.97;4.92;;;;;;;21.23;87.19;100184.69;446202;119;923053;-79
2022/08/03 02:47:27;;;;;;;5.51;4.97;;;;;;;21.23;86.92;100188.26;446094;119;922538;-78
2022/08/03 02:48:35;;;;;;;9.62;5.33;;;;;;;21.21;86.67;100180.26;444215;119;923182;-78
2022/08/03 02:49:41;;;;;;;6.95;5.69;;;;;;;21.20;86.38;100186.09;446076;119;923525;-79
2022/08/03 02:50:46;;;;;;;5.59;5.19;;;;;;;21.18;86.19;100188.31;445266;118;922644;-79
2022/08/03 02:51:52;;;;;;;7.53;5.33;;;;;;;21.16;86.18;100188.64;446870;117;922653;-78
2022/08/03 02:52:57;;;;;;;4.85;4.48;;;;;;;21.15;86.33;100192.52;453297;117;923140;-79
2022/08/03 02:54:03;;;;;;;4.96;4.53;;;;;;;21.16;86.29;100196.13;453236;117;923087;-79
2022/08/03 02:55:09;;;;;;;5.46;4.87;;;;;;;21.15;86.38;100195.30;453212;117;923067;-78
2022/08/03 02:56:15;;;;;;;8.13;5.31;;;;;;;21.15;86.72;100198.07;453269;117;922685;-79
2022/08/03 02:57:20;;;;;;;5.54;5.11;;;;;;;21.17;86.88;100192.23;453285;117;923206;-79
2022/08/03 02:58:24;;;;;;;5.31;4.96;;;;;;;21.18;86.86;100202.18;453261;117;923043;-79
2022/08/03 02:59:30;;;;;;;5.76;5.13;;;;;;;21.18;86.64;100194.70;453357;117;922788;-79
2022/08/03 03:00:34;;;;;;;5.48;5.08;;;;;;;21.17;86.43;100201.35;453206;117;930598;-80
2022/08/03 03:01:39;;;;;;;4.94;4.54;;;;;;;21.17;86.20;100198.58;453299;117;923113;-79
2022/08/03 03:02:42;;;;;;;5.51;5.12;;;;;;;21.15;85.86;100200.84;453458;117;922579;-79
2022/08/03 03:03:48;;;;;;;4.98;4.61;;;;;;;21.14;85.56;100195.55;453288;117;923225;-79
2022/08/03 03:04:54;;;;;;;5.13;4.75;;;;;;;21.12;85.27;100197.78;453242;117;923014;-78
2022/08/03 03:05:59;;;;;;;5.34;4.94;;;;;;;21.09;85.16;100193.66;450305;117;930536;-80
2022/08/03 03:07:04;;;;;;;5.60;5.20;;;;;;;21.08;85.21;100192.00;452778;117;922506;-79
2022/08/03 03:08:15;;;;;;;8.02;5.30;;;;;;;21.08;85.42;100197.55;453263;117;922544;-79
2022/08/03 03:09:20;;;;;;;5.54;5.10;;;;;;;21.09;85.50;100190.89;452592;117;922660;-79
2022/08/03 03:10:25;;;;;;;5.94;5.05;;;;;;;21.10;85.67;100192.55;453255;117;930476;-80
2022/08/03 03:11:29;;;;;;;5.60;4.96;;;;;;;21.13;85.94;100191.12;453385;117;923052;-80
2022/08/03 03:12:36;;;;;;;6.04;5.33;;;;;;;21.18;86.27;100204.95;453291;117;922539;-79
2022/08/03 03:13:41;;;;;;;5.67;5.22;;;;;;;21.18;86.27;100204.95;453205;117;930620;-77
2022/08/03 03:14:44;;;;;;;5.78;5.04;;;;;;;21.21;86.42;100201.61;453242;117;922922;-78
2022/08/03 03:15:48;;;;;;;5.82;5.09;;;;;;;21.23;86.48;100202.95;449744;118;922698;-78
2022/08/03 03:16:51;;;;;;;6.28;5.31;;;;;;;21.26;86.43;100203.50;449650;118;922504;-78
2022/08/03 03:17:58;;;;;;;5.81;5.38;;;;;;;21.27;86.24;100200.44;449369;118;923015;-78
2022/08/03 03:19:02;;;;;;;5.57;5.17;;;;;;;21.28;86.09;100196.52;449495;118;922985;-78
2022/08/03 03:20:07;;;;;;;6.03;5.11;;;;;;;21.27;85.88;100194.06;449622;116;922988;-78
2022/08/03 03:21:11;;;;;;;6.07;5.49;;;;;;;21.27;85.70;100202.38;449531;118;922539;-78
2022/08/03 03:22:16;;;;;;;5.70;5.24;;;;;;;21.26;85.55;100196.00;449511;118;922897;-78
2022/08/03 03:23:22;;;;;;;6.68;5.33;;;;;;;21.26;85.25;100192.41;449449;118;930499;-78
2022/08/03 03:24:27;;;;;;;5.51;5.04;;;;;;;21.26;85.32;100197.95;449500;116;922666;-78
2022/08/03 03:25:31;;;;;;;5.75;5.17;;;;;;;21.25;85.27;100187.97;449484;118;922618;-78
2022/08/03 03:26:35;;;;;;;5.45;5.12;;;;;;;21.27;85.42;100199.61;449664;118;922614;-78
2022/08/03 03:27:41;;;;;;;5.38;4.99;;;;;;;21.27;85.50;100192.12;449463;118;922650;-78
2022/08/03 03:28:46;;;;;;;6.33;5.92;;;;;;;21.30;85.57;100196.23;449487;118;922712;-79
2022/08/03 03:29:49;;;;;;;5.70;5.30;;;;;;;21.31;85.65;100197.89;448853;118;923014;-78
2022/08/03 03:30:52;;;;;;;5.92;5.56;;;;;;;21.32;85.82;100197.60;447750;118;922484;-79
2022/08/03 03:31:56;;;;;;;6.08;5.59;;;;;;;21.33;85.86;100196.48;449677;118;922888;-77
2022/08/03 03:32:59;;;;;;;6.48;5.98;;;;;;;21.36;85.97;100197.83;449756;118;922567;-78
2022/08/03 03:34:03;;;;;;;5.96;5.55;;;;;;;21.36;85.96;100195.88;452215;116;922619;-78
2022/08/03 03:35:08;;;;;;;6.00;5.49;;;;;;;21.38;85.89;100195.59;455083;116;922743;-78
2022/08/03 03:36:13;;;;;;;5.78;5.28;;;;;;;21.39;85.68;100191.70;455085;116;930525;-78
2022/08/03 03:37:17;;;;;;;5.65;5.28;;;;;;;21.40;85.57;100196.11;455236;116;922960;-78
2022/08/03 03:38:20;;;;;;;6.66;5.96;;;;;;;21.40;85.76;100188.61;455322;116;922594;-79
2022/08/03 03:39:23;;;;;;;6.40;5.89;;;;;;;21.41;85.74;100198.59;455316;116;922589;-79
2022/08/03 03:40:26;;;;;;;6.13;5.62;;;;;;;21.42;85.71;100203.02;455364;116;922639;-77
2022/08/03 03:41:31;;;;;;;6.10;5.52;;;;;;;21.43;85.84;100199.13;455186;116;922508;-78
2022/08/03 03:42:38;;;;;;;6.52;5.94;;;;;;;21.45;85.87;100207.14;455064;116;930518;-78
2022/08/03 03:43:42;;;;;;;6.01;5.49;;;;;;;21.45;85.80;100207.14;455322;116;922760;-79
2022/08/03 03:44:45;;;;;;;6.09;5.55;;;;;;;21.46;85.72;100208.80;455215;116;922649;-78
2022/08/03 03:45:48;;;;;;;6.72;6.27;;;;;;;21.47;85.80;100204.91;455268;116;923159;-79
2022/08/03 03:46:51;;;;;;;6.15;5.49;;;;;;;21.48;85.83;100215.72;455168;116;922995;-77
2022/08/03 03:47:54;;;;;;;5.83;5.48;;;;;;;21.49;86.01;100209.05;455264;116;922581;-77
2022/08/03 03:48:57;;;;;;;6.08;5.58;;;;;;;21.50;85.86;100219.00;453180;116;923008;-78
2022/08/03 03:50:05;;;;;;;5.83;5.30;;;;;;;21.51;85.81;100215.11;449683;116;922587;-78
2022/08/03 03:51:09;;;;;;;6.60;5.94;;;;;;;21.51;85.69;100208.73;449543;118;922713;-78
2022/08/03 03:52:12;;;;;;;7.49;6.79;;;;;;;21.52;85.69;100218.71;449593;118;923132;-78
2022/08/03 03:53:14;;;;;;;6.37;5.64;;;;;;;21.53;85.73;100210.10;449666;118;922783;-78
2022/08/03 03:54:18;;;;;;;6.61;6.15;;;;;;;21.53;85.39;100212.88;449607;118;923184;-78
2022/08/03 03:55:21;;;;;;;6.93;6.06;;;;;;;21.53;85.08;100217.59;449712;118;922602;-79
2022/08/03 03:56:25;;;;;;;6.38;5.94;;;;;;;21.52;84.67;100225.09;449652;118;922644;-78
2022/08/03 03:57:28;;;;;;;7.32;5.61;;;;;;;21.50;84.38;100226.52;449580;118;930475;-79
2022/08/03 03:58:32;;;;;;;8.07;5.93;;;;;;;21.48;84.27;100223.20;449702;118;922554;-78
2022/08/03 03:59:40;;;;;;;6.61;6.02;;;;;;;21.49;84.49;100227.64;449730;118;922857;-78
2022/08/03 04:01:39;;;;;;;6.50;5.94;;;;;;;21.63;84.91;100226.62;482393;110;945433;-78
2022/08/03 04:02:42;;;;;;;11.06;5.87;;;;;;;21.55;85.17;100216.19;473955;112;922537;-79
2022/08/03 04:03:46;;;;;;;6.31;5.87;;;;;;;21.58;85.31;100217.53;473880;112;922960;-78
2022/08/03 04:10:57;;;;;;;6.04;5.62;;;;;;;21.72;85.67;100229.58;465337;114;923104;-79
2022/08/03 04:11:32;;;;;;;6.18;5.68;;;;;;;21.73;85.27;100230.37;462984;114;922563;-79
2022/08/03 04:12:38;;;;;;;6.51;5.86;;;;;;;21.71;84.88;100230.70;462800;114;922559;-79
2022/08/03 04:13:55;;;;;;;6.82;6.32;;;;;;;21.69;84.65;100230.16;461630;114;922591;-79
2022/08/03 04:15:03;;;;;;;6.82;6.13;;;;;;;21.67;84.58;100229.61;461660;112;922673;-79
2022/08/03 04:16:09;;;;;;;6.74;6.33;;;;;;;21.67;84.64;100231.59;460606;115;923017;-80
2022/08/03 04:17:14;;;;;;;7.15;6.52;;;;;;;21.67;84.70;100234.36;460668;115;922632;-80
2022/08/03 04:18:18;;;;;;;6.38;5.90;;;;;;;21.66;84.87;100236.31;460685;115;922613;-79
2022/08/03 04:19:27;;;;;;;6.22;5.64;;;;;;;21.68;84.88;100238.77;460706;115;924960;-78
2022/08/03 04:20:34;;;;;;;6.94;6.08;;;;;;;21.67;84.76;100235.16;460762;115;923001;-79
2022/08/03 04:21:41;;;;;;;7.23;6.50;;;;;;;21.67;84.66;100240.71;460630;115;923791;-80
2022/08/03 04:22:46;;;;;;;6.88;6.37;;;;;;;21.68;84.66;100255.42;460648;115;923040;-78
2022/08/03 04:23:53;;;;;;;7.41;6.81;;;;;;;21.68;84.87;100245.14;460639;115;922748;-79
2022/08/03 04:25:00;;;;;;;8.27;7.55;;;;;;;21.70;84.96;100255.95;460655;115;922614;-80
2022/08/03 04:26:08;;;;;;;7.28;6.71;;;;;;;21.72;85.16;100251.78;460307;115;923600;-79
2022/08/03 04:27:14;;;;;;;7.54;6.93;;;;;;;21.74;85.24;100254.23;460662;115;922417;-78
2022/08/03 04:28:19;;;;;;;7.52;7.02;;;;;;;21.78;84.99;100258.06;460633;115;922792;-79
2022/08/03 04:29:25;;;;;;;8.02;7.44;;;;;;;21.80;84.85;100253.05;459104;115;922499;-79
2022/08/03 04:30:32;;;;;;;8.00;7.43;;;;;;;21.82;84.95;100259.97;458256;114;922512;-78
2022/08/03 04:31:37;;;;;;;7.96;7.34;;;;;;;21.84;84.79;100252.16;457218;116;922598;-79
2022/08/03 04:32:44;;;;;;;7.96;7.32;;;;;;;21.85;84.85;100251.03;457279;116;922944;-78
2022/08/03 04:33:50;;;;;;;7.51;6.98;;;;;;;21.87;84.95;100251.58;457190;114;923027;-79
2022/08/03 04:34:53;;;;;;;8.24;7.59;;;;;;;21.90;85.06;100256.52;457269;114;923090;-78
2022/08/03 04:35:58;;;;;;;7.81;7.37;;;;;;;21.94;85.15;100256.77;457483;116;922572;-78
2022/08/03 04:37:06;;;;;;;8.47;7.82;;;;;;;21.96;85.08;100254.53;456917;116;923330;-78
2022/08/03 04:38:13;;;;;;;8.86;8.32;;;;;;;21.98;84.75;100252.30;457347;116;922591;-79
2022/08/03 04:39:25;;;;;;;9.12;8.42;;;;;;;21.99;84.44;100260.34;457324;116;922992;-78
2022/08/03 04:40:37;;;;;;;9.35;8.64;;;;;;;21.99;84.23;100252.01;457271;116;922582;-79
2022/08/03 04:41:43;;;;;;;9.91;9.15;;;;;;;22.00;84.27;100261.96;457246;116;923003;-79
2022/08/03 04:42:49;;;;;;;9.81;8.93;;;;;;;22.01;84.27;100249.73;453808;116;923101;-78
2022/08/03 04:43:57;;;;;;;9.45;8.79;;;;;;;22.03;84.29;100249.45;457341;116;922493;-78
2022/08/03 04:45:02;;;;;;;9.82;9.22;;;;;;;22.04;84.23;100246.38;457235;114;923163;-78
2022/08/03 04:46:07;;;;;;;10.67;10.05;;;;;;;22.08;84.16;100245.77;457223;116;922683;-79
2022/08/03 04:47:10;;;;;;;10.51;9.69;;;;;;;22.08;83.89;100246.60;457319;116;923091;-78
2022/08/03 04:48:14;;;;;;;9.56;8.83;;;;;;;22.10;83.86;100247.14;457447;116;923097;-78
2022/08/03 04:49:19;;;;;;;10.06;9.46;;;;;;;22.12;84.06;100244.04;457325;116;922575;-78
2022/08/03 04:50:26;;;;;;;8.57;8.06;;;;;;;22.15;84.30;100249.02;457194;114;922547;-78
2022/08/03 04:51:39;;;;;;;10.03;9.25;;;;;;;22.19;84.60;100250.05;457244;116;922635;-78
2022/08/03 04:52:43;;;;;;;9.71;9.01;;;;;;;22.23;84.54;100251.10;469540;113;922556;-78
2022/08/03 04:53:46;;;;;;;9.62;9.02;;;;;;;22.27;84.42;100252.17;469879;113;923075;-78
2022/08/03 04:54:49;;;;;;;9.38;8.81;;;;;;;22.30;84.49;100255.16;469902;113;930546;-78
2022/08/03 04:55:53;;;;;;;9.92;9.24;;;;;;;22.35;84.51;100257.04;469900;113;922487;-79
2022/08/03 04:56:56;;;;;;;10.25;9.51;;;;;;;22.38;84.55;100265.59;460612;114;922984;-78
2022/08/03 04:58:01;;;;;;;9.51;8.85;;;;;;;22.42;84.61;100254.72;461110;113;922657;-78
2022/08/03 04:59:04;;;;;;;9.64;9.08;;;;;;;22.45;84.54;100257.70;469898;113;922571;-78
2022/08/03 05:00:08;;;;;;;9.44;8.88;;;;;;;22.49;84.38;100255.17;469993;112;922561;-78
2022/08/03 05:01:11;;;;;;;9.34;8.75;;;;;;;22.52;84.29;100250.95;469905;113;923090;-78
2022/08/03 05:02:14;;;;;;;9.94;9.26;;;;;;;22.54;84.03;100257.87;470009;113;922716;-78
2022/08/03 05:03:18;;;;;;;9.58;8.86;;;;;;;22.56;83.88;100254.77;469963;113;922594;-78
2022/08/03 05:04:23;;;;;;;10.39;9.60;;;;;;;22.57;83.73;100253.64;469311;113;922605;-79
2022/08/03 05:05:26;;;;;;;10.05;9.29;;;;;;;22.58;83.69;100249.74;469580;113;922577;-79
2022/08/03 05:06:31;;;;;;;9.82;9.22;;;;;;;22.58;83.50;100246.97;454161;116;922615;-78
2022/08/03 05:07:34;;;;;;;9.84;9.23;;;;;;;22.57;83.18;100251.69;448878;118;922911;-78
2022/08/03 05:08:39;;;;;;;10.59;9.93;;;;;;;22.57;83.11;100242.53;457215;116;922543;-78
2022/08/03 05:09:44;;;;;;;9.92;9.23;;;;;;;22.58;83.03;100250.57;456437;116;922632;-79